Aérodrome :
LOGIN :

S'inscrire | Disclaimer

   EN    FR    IT 

 










Légende :    VFR   VFR Marginal   IFR   IFR Intensif   IFR Très Intensif
Visi : 
Plafond : 
>= 8 km
>= 3000ft
5 à 8 km
1000 à 3000 ft
1500m à 5 km
500 à 1000 ft
800 à 1500m
200 à 500 ft
< 800m
< 200 ft
Symboles :   Orages  Brouillard  Fortes neiges  Fortes précipitations  Vent > 20 kt
SIGMETs :   Divers  Orages  Givrage  Turbulence  Onde Orograph.  Cendres Volcan.







- Altitude de l'aérodrome : 308 ft
- Code IATA : MHG


EDFM - Mannheim-City

DERNIER METAR :
  • 221750Z 24006KT CAVOK 26/05 Q1012

METARs EXPIRÉS :
  • 221720Z 26010KT 230V290 CAVOK 27/06 Q1012
  • 221650Z 25007KT CAVOK 27/07 Q1011
  • 221620Z 24009KT 190V280 CAVOK 28/07 Q1011
  • 221550Z 23009KT 180V270 CAVOK 28/07 Q1011
  • 221520Z 22008KT 180V250 CAVOK 28/08 Q1011

Prévision TAF périmée.
Pas de NOTAMs connus pour ce terrain.
1 SIGMET publié pour la FIR Langen (EDGG) :
 
Orages fréquents avec grêle
EDGG SIGMET 2 VALID 221730/221900 EDZF
EDGG LANGEN FIR FRQ TSGR FCST WI N5224 E00708 - N5219 E00732 - N5216 E00732 - N5140 E00711 - N5131 E00550 - N5224 E00644 - N5224 E00708 TOP FL370 MOV NE 30KT WKN=



MET'MAP, la Météo Aéronautique d'un coup d'oeil ! - Copyright ORBIFLY Décembre 2007 - Disclaimer

ORBIFLY MET'MAP TEAM :

Programmation & Développement : Alexandra Zaïnal
Conception & Développement : Baudouin d'Aumeries
Co-Programmation & Développement : Marc-Olivier Méhu
Soutien technique & logistique : Manuel Goepfert

Contact : metmap@orbifly.com




SOURCES & CREDITS :

   NOAA